CheckWX is a tool to help pilots better visualize weather data.  It is not intended as a substitute for an official pre-flight weather briefing.

18:45:42 UTC

CYYE METAR
Fort Nelson Airport
Fort Nelson, Canada
Current

46 mins ago

CYYE 221800Z 33011G17KT 4SM -SN DRSN OVC050 M13/M16 A3008 RMK SN4SC4 /S02/ SLP222
Observed
Feb-22 @ 18:00 UTC
Wind
  • 330° at 11 KTS
  • Gusting to KTS
Visibility
4 SM
Flight Rules
MVFR
Conditions
Light Snow, Low drifting Snow
Cloud Levels
  • Overcast at 5,000' AGL
Temperature
-13°C / 9°F
Dewpoint
-16°C / 3°F
Humidity
78%
Altimeter
30.08" Hg
Pressure
1022.2 hPa
Previous

2 hours ago

CYYE 221700Z 33010G16KT 3SM -SN DRSN OVC041 M13/M16 A3004 RMK SN6SC2 SLP208
Observed
Feb-22 @ 17:00 UTC
Wind
  • 330° at 10 KTS
  • Gusting to KTS
Visibility
3 SM
Flight Rules
MVFR
Conditions
Light Snow, Low drifting Snow
Cloud Levels
  • Overcast at 4,100' AGL
Temperature
-13°C / 9°F
Dewpoint
-16°C / 3°F
Humidity
78%
Altimeter
30.04" Hg
Pressure
1020.8 hPa
Previous

2 hours ago

CYYE 221634Z 33009KT 2 1/4SM -SN DRSN OVC041 M14/M16 A3003 RMK SN7SC1 SLP205
Observed
Feb-22 @ 16:34 UTC
Wind
  • 330° at 9 KTS
Visibility
2 1/4 SM
Flight Rules
IFR
Conditions
Light Snow, Low drifting Snow
Cloud Levels
  • Overcast at 4,100' AGL
Temperature
-14°C / 7°F
Dewpoint
-16°C / 3°F
Humidity
85%
Altimeter
30.03" Hg
Pressure
1020.5 hPa